Time;durP1;ratioP1;P1;durP2;ratioP2;P2;SDS_P1;SDS_P2;PMS_P1;PMS_P2;Temp;Humidity;BMP_temperature;BMP_pressure;BME280_temperature;BME280_humidity;BME280_pressure;Samples;Min_cycle;Max_cycle;Signal;HPM_P1;HPM_P2
2023/01/10 00:00:33;;;;;;;1.73;1.08;;;;;;;7.37;70.30;100349.19;4196640;28;20045;-68
2023/01/10 00:02:36;;;;;;;2.80;1.10;;;;;;;7.40;69.76;100354.44;4197990;28;20036;-68
2023/01/10 00:04:39;;;;;;;1.70;1.00;;;;;;;7.43;69.53;100354.56;4193987;28;20056;-68
2023/01/10 00:06:42;;;;;;;2.58;1.02;;;;;;;7.49;69.43;100358.97;4197717;28;20082;-68
2023/01/10 00:08:46;;;;;;;1.73;1.10;;;;;;;7.46;69.35;100359.81;4178763;28;20088;-68
2023/01/10 00:10:49;;;;;;;1.50;0.90;;;;;;;7.39;69.63;100357.91;4194367;28;20401;-67
2023/01/10 00:15:26;;;;;;;1.63;0.98;;;;;;;7.44;68.91;100363.19;4161342;28;20131;-68
2023/01/10 00:17:29;;;;;;;1.60;0.85;;;;;;;7.39;68.84;100372.50;4141357;28;20042;-69
2023/01/10 00:19:32;;;;;;;1.05;0.90;;;;;;;7.37;69.42;100369.03;4144031;28;20050;-68
2023/01/10 00:21:35;;;;;;;2.30;0.90;;;;;;;7.42;68.94;100376.06;4192111;28;20143;-68
2023/01/10 00:23:38;;;;;;;0.73;0.70;;;;;;;7.44;69.22;100379.56;4192307;28;20069;-68
2023/01/10 00:25:42;;;;;;;1.95;0.80;;;;;;;7.42;68.93;100385.56;4207612;28;20474;-68
2023/01/10 00:27:48;;;;;;;4.95;0.80;;;;;;;7.31;68.93;100393.00;4196544;28;20452;-68
2023/01/10 00:29:52;;;;;;;0.50;0.50;;;;;;;7.31;69.47;100388.72;4193467;28;20041;-68
2023/01/10 00:31:56;;;;;;;1.45;0.90;;;;;;;7.31;69.35;100398.19;4192965;28;20036;-68
2023/01/10 00:33:58;;;;;;;0.88;0.70;;;;;;;7.24;68.90;100404.94;4193145;28;20063;-68
2023/01/10 00:36:03;;;;;;;2.97;1.00;;;;;;;7.21;69.48;100409.13;4196158;28;20391;-68
2023/01/10 00:38:06;;;;;;;0.73;0.73;;;;;;;7.18;69.08;100406.47;4195096;28;20047;-69
2023/01/10 00:40:12;;;;;;;1.33;0.70;;;;;;;7.07;69.50;100424.28;4195279;28;20040;-69
2023/01/10 00:44:37;;;;;;;3.08;0.63;;;;;;;7.16;68.77;100422.78;4193584;28;20516;-70
2023/01/10 00:46:40;;;;;;;1.25;0.60;;;;;;;7.15;68.50;100430.50;4195335;28;20039;-69
2023/01/10 00:48:42;;;;;;;0.70;0.70;;;;;;;7.06;68.73;100433.72;4195087;28;20058;-69
2023/01/10 00:50:46;;;;;;;0.50;0.50;;;;;;;7.09;68.97;100444.13;4188346;28;20079;-69
2023/01/10 00:52:48;;;;;;;0.90;0.60;;;;;;;7.06;68.55;100443.19;4208738;28;20059;-69
2023/01/10 00:54:51;;;;;;;1.45;0.60;;;;;;;7.01;68.58;100455.09;4193257;28;20414;-69
2023/01/10 00:56:54;;;;;;;0.85;0.50;;;;;;;6.98;68.05;100463.66;4195004;28;20094;-69
2023/01/10 00:58:58;;;;;;;2.53;0.60;;;;;;;7.02;68.51;100470.63;4194560;28;20825;-70
2023/01/10 01:01:03;;;;;;;3.10;0.75;;;;;;;6.97;68.47;100473.09;4194898;28;20441;-69
2023/01/10 01:03:06;;;;;;;0.80;0.55;;;;;;;6.94;68.10;100483.34;4193262;28;20161;-69
2023/01/10 01:05:09;;;;;;;0.50;0.50;;;;;;;6.92;68.46;100490.19;4184578;28;20045;-69
2023/01/10 01:07:12;;;;;;;2.67;0.63;;;;;;;6.87;67.73;100491.75;4193325;28;20037;-70
2023/01/10 01:09:15;;;;;;;2.05;0.90;;;;;;;6.81;68.13;100491.56;4195309;28;20381;-69
2023/01/10 01:11:18;;;;;;;0.52;0.45;;;;;;;6.85;68.10;100501.19;4193049;28;20029;-69
2023/01/10 01:13:22;;;;;;;0.80;0.50;;;;;;;6.89;68.07;100510.78;4192207;28;20036;-70
2023/01/10 01:15:27;;;;;;;3.60;0.60;;;;;;;6.98;67.66;100516.22;4194884;28;20039;-69
2023/01/10 01:17:30;;;;;;;0.73;0.60;;;;;;;7.01;67.72;100522.28;4195473;28;20040;-70
2023/01/10 01:19:32;;;;;;;1.75;0.70;;;;;;;6.97;67.46;100526.50;4194921;28;20506;-69
2023/01/10 01:21:35;;;;;;;1.40;0.60;;;;;;;6.87;67.58;100533.09;4193376;28;20044;-69
2023/01/10 01:23:38;;;;;;;3.67;0.80;;;;;;;6.86;67.86;100530.47;4191920;28;20037;-71
2023/01/10 01:25:41;;;;;;;1.75;0.80;;;;;;;6.85;67.50;100544.22;4195507;28;20086;-70
2023/01/10 01:27:44;;;;;;;0.60;0.60;;;;;;;6.92;67.30;100535.81;4193175;28;20082;-69
2023/01/10 01:29:46;;;;;;;1.67;0.60;;;;;;;6.90;67.62;100548.69;4195335;28;20449;-69
2023/01/10 01:31:51;;;;;;;2.15;0.88;;;;;;;6.91;67.92;100559.94;4188882;28;20033;-69
2023/01/10 01:33:54;;;;;;;0.82;0.50;;;;;;;6.82;67.62;100576.03;4192709;28;20037;-69
2023/01/10 01:35:56;;;;;;;1.05;0.60;;;;;;;6.79;67.65;100581.06;4180904;28;20049;-69
2023/01/10 01:37:59;;;;;;;5.53;0.80;;;;;;;6.76;67.60;100591.31;4195187;28;20102;-70
2023/01/10 01:40:03;;;;;;;0.45;0.45;;;;;;;6.75;67.64;100594.75;4194840;28;20044;-70
2023/01/10 01:42:06;;;;;;;1.48;0.88;;;;;;;6.79;68.28;100612.06;4193206;28;20037;-69
2023/01/10 01:44:15;;;;;;;2.20;0.70;;;;;;;6.80;67.57;100613.84;4192861;28;20060;-69
2023/01/10 01:46:18;;;;;;;0.93;0.73;;;;;;;6.81;67.98;100618.19;4192181;28;20446;-69
2023/01/10 01:48:30;;;;;;;0.90;0.47;;;;;;;6.85;67.71;100625.22;4194446;28;20033;-69
2023/01/10 01:50:38;;;;;;;1.27;0.45;;;;;;;6.88;67.99;100632.16;4193450;28;20128;-69
2023/01/10 01:52:41;;;;;;;1.52;0.65;;;;;;;6.84;67.91;100641.53;4192283;28;20086;-69
2023/01/10 01:54:44;;;;;;;0.57;0.50;;;;;;;6.78;68.70;100652.56;4189984;28;20040;-69
2023/01/10 01:56:51;;;;;;;0.57;0.57;;;;;;;6.80;68.46;100656.09;4177965;28;20399;-69
2023/01/10 01:58:58;;;;;;;2.25;0.82;;;;;;;6.90;68.99;100662.41;4193530;28;20488;-70
2023/01/10 02:01:01;;;;;;;0.70;0.70;;;;;;;6.92;69.03;100667.63;4193361;28;20045;-69
2023/01/10 02:03:05;;;;;;;2.20;0.80;;;;;;;7.01;68.73;100669.63;4193201;28;20052;-69
2023/01/10 02:05:12;;;;;;;1.13;0.70;;;;;;;7.06;68.72;100684.47;4193212;28;20090;-69
2023/01/10 02:07:15;;;;;;;0.70;0.60;;;;;;;6.96;69.15;100685.84;4193468;28;20375;-69
2023/01/10 02:09:24;;;;;;;1.02;0.70;;;;;;;6.96;68.91;100683.28;4194139;28;20043;-68
2023/01/10 02:11:29;;;;;;;1.55;0.70;;;;;;;6.95;69.28;100684.13;4192560;28;20055;-69
2023/01/10 02:13:34;;;;;;;0.85;0.60;;;;;;;6.99;69.23;100691.16;4192701;28;20455;-69
2023/01/10 02:15:36;;;;;;;1.90;0.80;;;;;;;6.90;68.83;100683.06;4194506;28;20045;-70
2023/01/10 02:17:40;;;;;;;6.40;0.90;;;;;;;6.99;68.98;100691.16;4192177;28;20071;-69
2023/01/10 02:19:51;;;;;;;1.20;0.70;;;;;;;7.06;69.04;100704.28;4192409;28;20039;-69
2023/01/10 02:22:45;;;;;;;1.55;0.80;;;;;;;7.14;68.68;100707.97;4176500;28;20060;-70
2023/01/10 02:25:18;;;;;;;1.10;0.70;;;;;;;7.16;68.19;100698.56;4192175;28;20049;-69
2023/01/10 02:27:26;;;;;;;3.10;0.95;;;;;;;7.13;67.77;100699.34;4194407;28;20131;-69
2023/01/10 02:30:14;;;;;;;5.07;0.88;;;;;;;6.98;67.01;100706.63;4194544;28;20675;-69
2023/01/10 02:32:35;;;;;;;2.90;0.90;;;;;;;7.05;66.67;100718.88;4190817;28;20032;-70
2023/01/10 02:35:08;;;;;;;3.40;0.90;;;;;;;6.95;66.39;100716.81;4187141;28;20414;-69
2023/01/10 02:37:15;;;;;;;2.00;0.73;;;;;;;6.88;66.59;100715.75;4195314;28;20093;-69
2023/01/10 02:39:24;;;;;;;4.60;1.48;;;;;;;6.90;66.22;100708.94;4195249;28;20052;-69
2023/01/10 02:41:35;;;;;;;2.22;1.10;;;;;;;6.94;66.54;100717.69;4193714;28;20510;-69
2023/01/10 02:43:42;;;;;;;4.40;0.75;;;;;;;6.88;65.71;100726.09;4191926;28;20040;-67
2023/01/10 02:45:50;;;;;;;2.50;0.80;;;;;;;6.85;66.02;100725.09;4195253;28;20078;-69
2023/01/10 02:47:55;;;;;;;4.97;1.20;;;;;;;6.87;66.11;100726.06;4195180;28;20541;-70
2023/01/10 02:50:16;;;;;;;6.05;1.90;;;;;;;6.74;65.53;100719.59;4195037;28;20417;-70
2023/01/10 02:52:23;;;;;;;1.90;0.80;;;;;;;6.71;65.37;100720.34;4176029;28;20048;-69
2023/01/10 02:54:29;;;;;;;2.53;1.00;;;;;;;6.72;66.09;100726.41;4191749;28;20076;-68
2023/01/10 02:57:16;;;;;;;3.15;1.15;;;;;;;6.75;65.65;100726.53;4193411;28;20038;-69
2023/01/10 02:59:51;;;;;;;2.33;0.90;;;;;;;6.86;65.69;100738.06;4193935;28;20444;-69
2023/01/10 03:02:00;;;;;;;6.25;1.52;;;;;;;6.81;65.63;100743.09;4176303;28;20495;-69
2023/01/10 03:04:12;;;;;;;8.18;0.95;;;;;;;6.78;65.69;100749.88;4190579;28;20041;-69
2023/01/10 03:06:27;;;;;;;3.15;1.00;;;;;;;6.83;65.29;100753.47;4192895;28;20048;-69
2023/01/10 03:08:36;;;;;;;3.92;1.10;;;;;;;6.89;65.78;100747.63;4187928;28;20106;-69
2023/01/10 03:10:45;;;;;;;5.70;1.15;;;;;;;6.81;64.84;100768.94;4190618;28;20042;-69
2023/01/10 03:12:51;;;;;;;4.88;1.17;;;;;;;6.74;65.52;100761.78;4192599;28;20032;-68
2023/01/10 03:14:57;;;;;;;2.85;1.30;;;;;;;6.71;66.06;100768.56;4190000;28;20041;-69
2023/01/10 03:17:03;;;;;;;6.75;1.95;;;;;;;6.70;66.06;100766.81;4193877;28;20036;-69
2023/01/10 03:19:11;;;;;;;4.07;1.10;;;;;;;6.67;65.81;100766.69;4193443;28;20037;-68
2023/01/10 03:21:18;;;;;;;5.32;1.23;;;;;;;6.62;66.05;100777.75;4192135;28;20032;-68
2023/01/10 03:23:23;;;;;;;5.47;1.65;;;;;;;6.54;66.58;100780.88;4191616;28;20146;-68
2023/01/10 03:25:33;;;;;;;3.47;1.45;;;;;;;6.55;66.11;100783.50;4202974;28;20461;-69
2023/01/10 03:27:44;;;;;;;7.68;1.40;;;;;;;6.55;66.55;100795.56;4193827;28;20120;-69
2023/01/10 03:29:54;;;;;;;5.93;1.40;;;;;;;6.51;66.41;100796.28;4192812;28;20048;-69
2023/01/10 03:32:02;;;;;;;7.78;1.40;;;;;;;6.47;66.92;100803.91;4190634;28;20037;-69
2023/01/10 03:34:06;;;;;;;4.20;1.42;;;;;;;6.44;67.23;100813.28;4192346;28;20033;-68
2023/01/10 03:36:19;;;;;;;3.00;1.15;;;;;;;6.49;67.06;100805.69;4194689;28;20043;-69
2023/01/10 03:38:30;;;;;;;3.28;1.02;;;;;;;6.43;66.79;100817.53;4193957;28;20041;-69
2023/01/10 03:40:41;;;;;;;3.13;1.40;;;;;;;6.48;67.39;100820.28;4193214;28;20518;-70
2023/01/10 03:45:15;;;;;;;4.40;1.30;;;;;;;6.57;67.32;100835.22;4194222;28;20415;-69
2023/01/10 03:47:26;;;;;;;6.43;1.30;;;;;;;6.60;67.14;100832.75;4193836;28;20490;-69
2023/01/10 03:49:31;;;;;;;5.15;1.80;;;;;;;6.58;67.29;100840.44;4193053;28;20098;-70
2023/01/10 03:51:37;;;;;;;4.47;1.25;;;;;;;6.62;67.17;100849.22;4192512;28;20116;-69
2023/01/10 03:53:40;;;;;;;5.15;2.28;;;;;;;6.58;66.92;100852.50;4188638;28;20032;-70
2023/01/10 03:55:45;;;;;;;4.43;1.30;;;;;;;6.58;67.29;100855.09;4192819;28;20040;-69
2023/01/10 03:57:47;;;;;;;;;;;;;;;6.42;67.54;100856.22;4191785;28;20044;-70
2023/01/10 03:59:52;;;;;;;9.43;2.00;;;;;;;6.43;68.08;100857.97;4192983;28;20438;-70
2023/01/10 04:01:56;;;;;;;5.60;2.08;;;;;;;6.49;68.12;100862.50;4191523;28;20037;-70
2023/01/10 04:03:59;;;;;;;4.03;1.85;;;;;;;6.45;67.91;100859.81;4173378;28;20083;-70
2023/01/10 04:06:03;;;;;;;7.82;2.03;;;;;;;6.42;68.03;100866.53;4192762;28;20052;-70
2023/01/10 04:08:07;;;;;;;5.78;1.55;;;;;;;6.36;68.16;100869.78;4184375;28;20079;-69
2023/01/10 04:10:11;;;;;;;4.90;1.70;;;;;;;6.29;68.57;100881.59;4182929;28;20041;-69
2023/01/10 04:12:14;;;;;;;6.82;2.03;;;;;;;6.29;68.84;100884.16;4188872;28;20041;-69
2023/01/10 04:14:17;;;;;;;6.80;2.00;;;;;;;6.29;68.85;100891.91;4191074;28;20507;-69
2023/01/10 04:16:20;;;;;;;6.65;1.77;;;;;;;6.26;69.00;100891.81;4192499;28;20036;-69
2023/01/10 04:18:23;;;;;;;5.28;1.38;;;;;;;6.20;68.90;100899.28;4195364;28;20036;-69
2023/01/10 04:20:26;;;;;;;4.15;1.50;;;;;;;6.18;69.27;100888.03;4194448;28;20625;-69
2023/01/10 04:22:29;;;;;;;6.40;1.60;;;;;;;6.18;69.36;100900.94;4194028;28;20090;-70
2023/01/10 04:24:33;;;;;;;10.13;2.28;;;;;;;6.20;68.97;100906.16;4193914;28;20605;-70
2023/01/10 04:26:36;;;;;;;5.88;1.80;;;;;;;6.19;69.11;100900.13;4194297;28;20398;-69
2023/01/10 04:28:39;;;;;;;8.63;1.70;;;;;;;6.20;69.16;100904.44;4196370;28;20044;-69
2023/01/10 04:30:41;;;;;;;6.07;1.75;;;;;;;6.18;69.43;100905.22;4195128;28;20036;-70
2023/01/10 04:32:44;;;;;;;7.85;1.75;;;;;;;6.12;69.39;100900.72;4194600;28;20494;-69
2023/01/10 04:34:48;;;;;;;3.77;1.17;;;;;;;6.13;69.78;100909.31;4193989;28;20036;-69
2023/01/10 04:36:51;;;;;;;6.78;2.35;;;;;;;6.07;69.91;100902.22;4194504;28;20158;-68
2023/01/10 04:38:54;;;;;;;4.47;1.95;;;;;;;6.09;69.85;100898.00;4195842;28;20036;-69
2023/01/10 04:40:58;;;;;;;5.47;1.92;;;;;;;6.08;69.53;100906.56;4195498;28;20029;-68
2023/01/10 04:43:01;;;;;;;4.60;1.92;;;;;;;6.11;69.86;100909.25;4193759;28;20110;-69
2023/01/10 04:45:05;;;;;;;8.77;1.98;;;;;;;6.16;69.36;100915.47;4193290;28;20049;-69
2023/01/10 04:47:08;;;;;;;8.48;2.42;;;;;;;6.24;69.37;100915.78;4191229;28;20049;-69
2023/01/10 04:49:11;;;;;;;9.35;2.38;;;;;;;6.29;69.06;100919.41;4196340;28;20522;-69
2023/01/10 04:51:14;;;;;;;5.53;2.40;;;;;;;6.27;69.14;100916.78;4192541;28;20037;-69
2023/01/10 04:53:17;;;;;;;4.45;1.90;;;;;;;6.29;68.87;100922.00;4193651;28;20502;-69
2023/01/10 04:55:20;;;;;;;9.82;2.10;;;;;;;6.22;68.49;100927.75;4194275;28;20039;-69
2023/01/10 04:57:24;;;;;;;6.13;2.22;;;;;;;6.18;68.61;100928.47;4187852;28;20044;-69
2023/01/10 04:59:27;;;;;;;6.13;1.80;;;;;;;6.15;68.64;100938.63;4191304;28;20059;-69
2023/01/10 05:01:30;;;;;;;8.30;2.20;;;;;;;6.15;68.79;100941.22;4193749;28;20094;-69
2023/01/10 05:03:33;;;;;;;6.93;1.98;;;;;;;6.17;68.79;100935.31;4192947;28;20035;-70
2023/01/10 05:05:36;;;;;;;6.82;2.13;;;;;;;6.25;69.07;100933.94;4195454;28;20043;-69
2023/01/10 05:07:40;;;;;;;7.75;1.92;;;;;;;6.21;68.75;100944.06;4194077;28;20135;-69
2023/01/10 05:09:43;;;;;;;6.38;2.20;;;;;;;6.15;68.78;100939.53;4195666;28;20098;-69
2023/01/10 05:11:45;;;;;;;5.97;1.67;;;;;;;6.16;68.75;100954.19;4193420;28;20391;-69
2023/01/10 05:13:50;;;;;;;8.93;2.92;;;;;;;6.15;69.14;100952.44;4189525;28;20418;-69
2023/01/10 05:15:53;;;;;;;8.30;1.88;;;;;;;6.14;69.21;100949.81;4191678;28;20413;-69
2023/01/10 05:17:59;;;;;;;10.80;2.43;;;;;;;6.14;68.94;100966.16;4193193;28;20040;-69
2023/01/10 05:20:02;;;;;;;6.90;1.75;;;;;;;6.11;68.89;100966.91;4194485;28;20112;-69
2023/01/10 05:22:05;;;;;;;8.25;1.88;;;;;;;6.13;68.54;100968.69;4193308;28;20479;-69
2023/01/10 05:24:09;;;;;;;8.10;2.20;;;;;;;6.14;68.81;100966.16;4192403;28;20041;-69
2023/01/10 05:26:14;;;;;;;8.10;2.60;;;;;;;6.15;68.37;100960.19;4189751;28;20509;-69
2023/01/10 05:28:16;;;;;;;7.95;2.00;;;;;;;6.16;68.74;100958.47;4193007;28;20398;-69
2023/01/10 05:30:21;;;;;;;13.27;2.20;;;;;;;6.27;68.55;100963.25;4194030;28;20469;-69
2023/01/10 05:32:28;;;;;;;10.50;2.40;;;;;;;6.31;68.59;100969.44;4191240;28;20125;-69
2023/01/10 05:34:31;;;;;;;9.95;2.35;;;;;;;6.33;68.51;100965.19;4191076;28;20116;-69
2023/01/10 05:36:33;;;;;;;7.60;2.03;;;;;;;6.36;67.95;100967.91;4194514;28;20036;-69
2023/01/10 05:38:36;;;;;;;6.40;2.38;;;;;;;6.42;67.47;100975.88;4193547;28;20040;-69
2023/01/10 05:40:39;;;;;;;8.25;2.22;;;;;;;6.37;67.20;100969.66;4194442;28;20048;-69
2023/01/10 05:42:42;;;;;;;10.18;2.65;;;;;;;6.38;67.60;100974.03;4192862;28;20061;-69
2023/01/10 05:44:45;;;;;;;10.10;2.67;;;;;;;6.36;66.79;100982.53;4193157;28;20082;-69
2023/01/10 05:46:49;;;;;;;9.88;1.83;;;;;;;6.38;66.93;100983.44;4187557;28;20403;-69
2023/01/10 05:48:52;;;;;;;9.45;2.30;;;;;;;6.39;67.04;100992.97;4193176;28;20044;-69
2023/01/10 05:50:56;;;;;;;8.25;2.20;;;;;;;6.38;66.60;100994.69;4194183;28;20091;-69
2023/01/10 05:53:03;;;;;;;7.10;1.83;;;;;;;6.42;66.66;100995.66;4192115;28;20036;-69
2023/01/10 05:55:06;;;;;;;7.72;2.00;;;;;;;6.53;66.81;100996.13;4193706;28;20796;-69
2023/01/10 05:57:09;;;;;;;8.88;1.80;;;;;;;6.53;66.63;100999.56;4191379;28;20131;-69
2023/01/10 05:59:12;;;;;;;5.72;2.05;;;;;;;6.55;66.38;101009.97;4193573;28;20041;-69
2023/01/10 06:01:29;;;;;;;8.65;1.52;;;;;;;6.63;66.47;101006.84;4188198;28;20136;-69
2023/01/10 06:03:33;;;;;;;9.13;2.50;;;;;;;6.64;66.18;101010.31;4193838;28;21688;-69
2023/01/10 06:05:36;;;;;;;7.43;1.95;;;;;;;6.68;66.54;101021.66;4193925;28;20044;-69
2023/01/10 06:07:39;;;;;;;9.40;2.05;;;;;;;6.62;66.35;101025.75;4191820;28;20048;-69
2023/01/10 06:09:42;;;;;;;11.35;3.15;;;;;;;6.62;66.13;101027.47;4193634;28;20036;-69
2023/01/10 06:11:45;;;;;;;9.32;2.38;;;;;;;6.63;66.13;101030.09;4193415;28;20051;-70
2023/01/10 06:13:52;;;;;;;7.32;2.83;;;;;;;6.68;66.28;101032.88;4192879;28;20036;-69
2023/01/10 06:15:55;;;;;;;12.10;2.92;;;;;;;6.69;66.11;101038.91;4191276;28;20062;-69
2023/01/10 06:17:58;;;;;;;11.13;2.60;;;;;;;6.64;65.66;101047.38;4193706;28;20063;-68
2023/01/10 06:20:02;;;;;;;7.72;2.33;;;;;;;6.59;65.60;101056.63;4194277;28;20086;-69
2023/01/10 06:22:05;;;;;;;9.57;2.40;;;;;;;6.56;66.04;101059.09;4194061;28;20040;-70
2023/01/10 06:24:09;;;;;;;10.18;1.88;;;;;;;6.61;66.31;101072.19;4192029;28;20040;-69
2023/01/10 06:26:12;;;;;;;12.70;2.30;;;;;;;6.66;66.37;101069.78;4191028;28;20040;-70
2023/01/10 06:28:15;;;;;;;10.93;2.60;;;;;;;6.71;66.31;101074.31;4191845;28;20421;-69
2023/01/10 06:30:18;;;;;;;15.43;2.65;;;;;;;6.72;66.24;101070.06;4192479;28;20047;-70
2023/01/10 06:32:21;;;;;;;10.90;2.08;;;;;;;6.66;66.37;101072.38;4191727;28;20041;-70
2023/01/10 06:34:24;;;;;;;13.18;2.72;;;;;;;6.74;66.86;101069.28;4191027;28;20044;-70
2023/01/10 06:36:28;;;;;;;14.75;3.10;;;;;;;6.67;66.07;101071.56;4197074;28;20046;-71
2023/01/10 06:38:31;;;;;;;14.57;2.97;;;;;;;6.61;66.49;101078.25;4193010;28;20094;-71
2023/01/10 06:40:33;;;;;;;14.27;3.15;;;;;;;6.59;66.27;101085.06;4194009;28;20048;-70
2023/01/10 06:42:37;;;;;;;10.95;3.53;;;;;;;6.63;66.77;101086.94;4195114;28;20068;-70
2023/01/10 06:44:40;;;;;;;14.80;2.97;;;;;;;6.57;66.41;101097.03;4194455;28;20036;-69
2023/01/10 06:46:43;;;;;;;12.00;3.25;;;;;;;6.52;66.62;101105.41;4195168;28;20044;-70
2023/01/10 06:48:47;;;;;;;10.77;2.58;;;;;;;6.52;66.90;101119.19;4195153;28;20135;-69
2023/01/10 06:50:50;;;;;;;19.42;4.20;;;;;;;6.44;66.60;101116.31;4188604;28;20098;-69
2023/01/10 06:52:58;;;;;;;16.85;3.30;;;;;;;6.49;66.80;101132.00;4195922;28;20041;-70
2023/01/10 06:55:01;;;;;;;19.45;3.25;;;;;;;6.50;67.36;101135.44;4194308;28;20037;-69
2023/01/10 06:57:04;;;;;;;8.80;2.60;;;;;;;6.57;66.53;101133.19;4194335;28;20048;-69
2023/01/10 06:59:08;;;;;;;12.45;2.92;;;;;;;6.59;66.56;101123.81;4176043;28;20043;-69
2023/01/10 07:01:14;;;;;;;17.98;3.83;;;;;;;6.51;66.59;101113.97;4187732;28;20390;-70
2023/01/10 07:03:18;;;;;;;15.45;3.20;;;;;;;6.60;66.59;101119.50;4189971;28;20048;-73
2023/01/10 07:05:21;;;;;;;12.23;3.42;;;;;;;6.76;66.73;101113.25;4193618;28;20033;-70
2023/01/10 07:07:23;;;;;;;15.23;3.35;;;;;;;6.89;66.34;101123.28;4195041;28;20033;-70
2023/01/10 07:09:28;;;;;;;10.57;2.70;;;;;;;6.97;66.79;101119.28;4195461;28;20422;-70
2023/01/10 07:11:33;;;;;;;13.75;2.97;;;;;;;7.01;67.49;101141.00;4194166;28;20483;-70
2023/01/10 07:13:36;;;;;;;12.32;3.33;;;;;;;7.09;66.86;101143.88;4193287;28;20444;-70
2023/01/10 07:15:38;;;;;;;8.65;2.35;;;;;;;7.12;66.56;101152.63;4165143;28;20270;-70
2023/01/10 07:17:41;;;;;;;7.97;2.40;;;;;;;7.06;67.30;101161.84;4193053;28;20033;-70
2023/01/10 07:19:44;;;;;;;11.10;2.53;;;;;;;7.06;67.42;101161.84;4193580;28;20552;-71
2023/01/10 07:21:47;;;;;;;11.95;3.30;;;;;;;7.05;66.37;101163.53;4194919;28;20122;-71
2023/01/10 07:23:50;;;;;;;8.90;2.40;;;;;;;7.04;66.52;101171.22;4187426;28;20040;-71
2023/01/10 07:25:55;;;;;;;12.80;2.58;;;;;;;6.89;66.68;101181.84;4195601;28;20462;-71
2023/01/10 07:27:57;;;;;;;9.52;2.72;;;;;;;6.73;67.39;101193.25;4193866;28;20040;-70
2023/01/10 07:30:00;;;;;;;8.60;2.40;;;;;;;6.69;67.85;101194.84;4177263;28;20523;-71
2023/01/10 07:32:04;;;;;;;14.68;3.67;;;;;;;6.66;67.61;101193.81;4194812;28;20050;-70
2023/01/10 07:34:06;;;;;;;9.40;3.42;;;;;;;6.66;67.45;101199.88;4193873;28;20045;-70
2023/01/10 07:36:10;;;;;;;11.57;3.10;;;;;;;6.70;68.19;101206.94;4194843;28;20127;-70
2023/01/10 07:38:12;;;;;;;11.43;2.15;;;;;;;6.68;68.14;101210.28;4194644;28;20127;-70
2023/01/10 07:40:15;;;;;;;12.48;2.72;;;;;;;6.64;68.17;101207.56;4190092;28;20037;-70
2023/01/10 07:42:19;;;;;;;12.07;2.28;;;;;;;6.70;67.77;101201.78;4194837;28;20058;-70
2023/01/10 07:44:23;;;;;;;13.07;3.15;;;;;;;6.73;67.85;101204.47;4193128;28;20037;-70
2023/01/10 07:46:25;;;;;;;15.88;2.70;;;;;;;6.71;67.68;101200.06;4193593;28;20487;-70
2023/01/10 07:48:29;;;;;;;9.10;2.95;;;;;;;6.70;68.27;101216.38;4193464;28;20115;-70
2023/01/10 07:50:34;;;;;;;17.65;3.03;;;;;;;6.69;68.05;101210.34;4194692;28;20509;-70
2023/01/10 07:52:37;;;;;;;16.25;3.65;;;;;;;6.54;67.24;101205.41;4196590;28;20043;-70
2023/01/10 07:54:40;;;;;;;14.02;3.35;;;;;;;6.50;67.31;101218.09;4196108;28;20039;-70
2023/01/10 07:56:43;;;;;;;15.15;3.30;;;;;;;6.38;67.34;101221.94;4197527;28;20040;-70
2023/01/10 07:58:47;;;;;;;24.67;4.85;;;;;;;6.32;67.67;101229.41;4196297;28;20037;-70
2023/01/10 08:00:50;;;;;;;18.70;3.58;;;;;;;6.39;67.32;101235.72;4196325;28;20075;-70
2023/01/10 08:02:53;;;;;;;16.90;4.43;;;;;;;6.52;67.28;101232.00;4197924;28;20049;-70
2023/01/10 08:04:57;;;;;;;15.30;3.22;;;;;;;6.60;67.81;101241.84;4196928;28;20502;-70
2023/01/10 08:06:59;;;;;;;17.70;3.75;;;;;;;6.52;67.38;101248.34;4197539;28;20094;-71
2023/01/10 08:09:04;;;;;;;15.13;3.63;;;;;;;6.54;67.79;101253.59;4197771;28;20040;-70
2023/01/10 08:11:07;;;;;;;13.50;4.07;;;;;;;6.58;67.76;101247.75;4197468;28;20068;-70
2023/01/10 08:13:11;;;;;;;14.07;3.63;;;;;;;6.60;67.76;101241.84;4197061;28;20048;-70
2023/01/10 08:15:22;;;;;;;9.70;2.58;;;;;;;6.73;67.85;101248.41;4194060;28;20544;-70
2023/01/10 08:17:25;;;;;;;18.13;3.85;;;;;;;6.84;67.83;101245.41;4196198;28;20036;-70
2023/01/10 08:19:29;;;;;;;13.23;3.15;;;;;;;6.82;67.77;101240.16;4196647;28;22489;-70
2023/01/10 08:21:32;;;;;;;12.63;2.58;;;;;;;6.85;66.98;101252.31;4196260;28;20055;-70
2023/01/10 08:23:35;;;;;;;12.07;2.40;;;;;;;6.87;67.14;101261.91;4196618;28;20927;-70
2023/01/10 08:25:38;;;;;;;16.42;2.97;;;;;;;6.89;67.56;101268.03;4197493;28;20441;-70
2023/01/10 08:27:41;;;;;;;15.90;3.83;;;;;;;6.89;67.14;101269.72;4197340;28;20187;-70
2023/01/10 08:29:44;;;;;;;11.80;3.22;;;;;;;6.95;67.20;101270.88;4207559;28;20048;-70
2023/01/10 08:31:48;;;;;;;8.48;2.83;;;;;;;6.98;67.81;101249.44;4197025;28;20127;-70
2023/01/10 08:33:51;;;;;;;11.85;3.47;;;;;;;7.00;68.02;101258.13;4189825;28;20044;-71
2023/01/10 08:35:54;;;;;;;12.80;2.55;;;;;;;6.92;68.09;101265.59;4196578;28;20530;-71
2023/01/10 08:37:59;;;;;;;9.82;2.47;;;;;;;6.94;67.93;101263.94;4196291;28;20064;-71
2023/01/10 08:40:02;;;;;;;8.80;2.33;;;;;;;6.92;68.00;101264.69;4194950;28;20037;-71
2023/01/10 08:42:05;;;;;;;13.35;2.75;;;;;;;6.86;68.32;101260.13;4197165;28;20037;-71
2023/01/10 08:44:10;;;;;;;9.98;2.17;;;;;;;6.92;68.17;101260.41;4196050;28;20032;-71
2023/01/10 08:46:13;;;;;;;11.93;3.28;;;;;;;7.06;67.78;101268.72;4197155;28;20456;-71
2023/01/10 08:48:17;;;;;;;10.88;3.05;;;;;;;7.02;67.39;101264.25;4196961;28;20090;-71
2023/01/10 08:50:20;;;;;;;12.55;3.25;;;;;;;6.96;68.16;101269.16;4196978;28;20060;-71
2023/01/10 08:52:23;;;;;;;12.30;2.72;;;;;;;6.93;67.92;101267.31;4192391;28;20123;-71
2023/01/10 08:54:26;;;;;;;14.13;2.97;;;;;;;6.76;68.08;101270.91;4178761;28;20045;-71
2023/01/10 08:56:29;;;;;;;16.10;3.80;;;;;;;6.74;68.57;101276.00;4196454;28;20028;-71
2023/01/10 08:58:32;;;;;;;9.73;2.58;;;;;;;6.76;68.96;101279.56;4197510;28;20490;-72
2023/01/10 09:00:35;;;;;;;17.02;4.68;;;;;;;6.78;68.44;101277.03;4196892;28;20042;-72
2023/01/10 09:02:40;;;;;;;9.07;2.60;;;;;;;6.83;67.93;101272.91;4196593;28;20048;-71
2023/01/10 09:04:44;;;;;;;;;;;;;;;6.66;68.21;101277.38;4196105;28;20032;-69
2023/01/10 09:06:46;;;;;;;12.70;2.63;;;;;;;6.67;68.45;101288.59;4196563;28;19925;-69
2023/01/10 09:08:49;;;;;;;10.85;2.63;;;;;;;6.65;68.26;101283.38;4192616;28;20070;-69
2023/01/10 09:10:52;;;;;;;11.45;2.10;;;;;;;6.67;67.99;101278.25;4196336;28;20131;-68
2023/01/10 09:12:58;;;;;;;11.90;2.72;;;;;;;6.77;68.36;101283.00;4198528;28;20326;-68
2023/01/10 09:15:01;;;;;;;18.02;2.80;;;;;;;6.90;68.64;101274.94;4197825;28;20044;-68
2023/01/10 09:17:04;;;;;;;12.57;3.10;;;;;;;6.99;67.93;101275.38;4224245;28;20507;-68
2023/01/10 09:19:07;;;;;;;13.60;3.60;;;;;;;6.99;67.34;101282.22;4182043;28;20044;-67
2023/01/10 09:21:11;;;;;;;10.98;2.53;;;;;;;6.88;66.88;101289.53;4182056;28;20041;-68
2023/01/10 09:23:18;;;;;;;8.10;2.55;;;;;;;6.88;67.77;101299.88;4193046;28;20513;-67
2023/01/10 09:25:22;;;;;;;13.80;3.15;;;;;;;6.77;67.32;101299.38;4195955;28;20052;-67
2023/01/10 09:27:25;;;;;;;12.52;2.58;;;;;;;6.74;67.54;101300.97;4198300;28;20578;-68
2023/01/10 09:29:27;;;;;;;18.65;2.72;;;;;;;6.75;67.54;101306.19;4197537;28;20036;-71
2023/01/10 09:31:30;;;;;;;16.95;3.08;;;;;;;6.68;67.08;101305.88;4198341;28;20051;-72
2023/01/10 09:33:33;;;;;;;12.85;3.72;;;;;;;6.62;67.27;101315.09;4194285;28;20047;-72
2023/01/10 09:35:48;;;;;;;12.38;2.83;;;;;;;6.59;67.52;101320.16;4198319;28;20079;-73
2023/01/10 09:37:55;;;;;;;13.10;2.92;;;;;;;6.63;67.22;101318.59;4198273;28;20040;-73
2023/01/10 09:39:58;;;;;;;16.13;3.25;;;;;;;6.76;67.38;101325.16;4198083;28;20047;-71
2023/01/10 09:42:14;;;;;;;14.02;3.15;;;;;;;6.69;68.00;101331.78;4187812;28;20045;-71
2023/01/10 09:44:25;;;;;;;15.52;3.33;;;;;;;6.71;67.52;101331.84;4193915;28;20469;-71
2023/01/10 09:46:39;;;;;;;9.23;2.75;;;;;;;6.72;67.32;101334.50;4196027;28;20041;-72
2023/01/10 09:48:49;;;;;;;14.30;2.97;;;;;;;6.78;67.58;101329.59;4184512;28;20029;-71
2023/01/10 09:51:09;;;;;;;11.55;2.70;;;;;;;6.89;67.52;101329.16;4194717;28;20040;-70
2023/01/10 09:53:16;;;;;;;9.82;3.15;;;;;;;6.97;67.71;101338.16;4192268;28;20127;-72
2023/01/10 09:55:25;;;;;;;17.27;3.15;;;;;;;6.94;67.38;101336.31;4195778;28;20064;-71